Terminal Aerodrome Forecast
Issued by NWS

Home | Current Version | Previous Version | Text Only | Print | Product List | Glossary On
Versions: 1 2 3 4 5 6 7 8 9 10 11 12 13
755
FTUS43 KPAH 232324
TAFCGI
TAF
KCGI 232324Z 2400/2424 33005KT P6SM VCSH BKN080
      TEMPO 2400/2402 -SHRA BKN050
     FM240400 33004KT P6SM BKN060
     FM241400 32008KT P6SM BKN040=

USA.gov is the U.S. government's official web portal to all federal, state and local government web resources and services.